Flight Track Log - Related Links

Times and Time Zones

All times are in EDT time to prevent confusion due to time zone crossing. See the EJA755 flight status page for this flight to view local times or setup timezone preferences in your user account.

Time Position Orientation Groundspeed Altitude Reporting Facility
EDT Latitude Longitude Course Direction KTS MPH feet Rate Location/Type
Wed 06:07:17 PM 41.3961 -81.8703 202° Southwest 186 214 1,800  Level Cleveland Center
Wed 06:07:46 PM 41.3667 -81.8864 202° Southwest 226 260 3,600 2,090 Climbing Cleveland Center
Wed 06:08:46 PM 41.3081 -81.9211 204° Southwest 238 274 4,900 1,850 Climbing Cleveland Center
Wed 06:09:46 PM 41.2347 -81.9528 198° South 264 304 7,300 3,100 Climbing Cleveland Center
Wed 06:10:46 PM 41.1553 -81.9703 189° South 283 326 11,100 3,200 Climbing Cleveland Center
Wed 06:11:46 PM 41.0589 -81.9986 192° South 325 374 13,700 1,450 Climbing Cleveland Center
Wed 06:12:46 PM 40.9564 -82.0239 191° South 367 422 14,000 200 Climbing Cleveland Center
Wed 06:13:46 PM 40.8681 -82.0986 213° Southwest 366 421 14,100  Climbing Cleveland Center
Wed 06:14:46 PM 40.7958 -82.1986 226° Southwest 377 434 14,000 -1,193 Descending Cleveland Center
Wed 06:16:47 PM 40.6547 -82.3917 226° Southwest 370 426 10,500 -1,311 Descending Indianapolis Center
Wed 06:17:49 PM 40.5869 -82.4886 227° Southwest 357 411 10,000 -280 Descending Indianapolis Center
Wed 06:18:34 PM 40.5358 -82.5628 228° Southwest 347 399 10,000  Level Indianapolis Center
Wed 06:18:51 PM 40.5208 -82.5833 226° Southwest 349 402 10,000  Level Indianapolis Center
Wed 06:19:35 PM 40.4692 -82.6569 227° Southwest 346 398 10,000  Level Indianapolis Center
Wed 06:19:53 PM 40.4542 -82.6769 225° Southwest 350 403 10,000 -393 Level Indianapolis Center
Wed 06:20:36 PM 40.4011 -82.7369 221° Southwest 314 361 9,600 -677 Descending Indianapolis Center
Wed 06:20:55 PM 40.3853 -82.7500 212° Southwest 305 351 9,300 -1,574 Descending Indianapolis Center
Wed 06:21:37 PM 40.3339 -82.8058 220° Southwest 278 320 8,000 -1,742 Descending Indianapolis Center
Wed 06:21:57 PM 40.3133 -82.8253 216° Southwest 288 331 7,500 -1,500 Descending Indianapolis Center
Wed 06:22:37 PM 40.2731 -82.8700 220° Southwest 281 323 6,500 -1,452 Descending Indianapolis Center
Wed 06:22:59 PM 40.2517 -82.8889 214° Southwest 282 325 6,000 -492 Descending Indianapolis Center
Wed 06:23:38 PM 40.2125 -82.9314 220° Southwest 274 315 6,000 -97 Level Indianapolis Center
Wed 06:24:01 PM 40.1919 -82.9531 219° Southwest 275 316 5,900 -98 Descending Indianapolis Center
Wed 06:24:39 PM 40.1514 -82.9981 220° Southwest 281 323 5,900  Level Indianapolis Center
Wed 06:25:03 PM 40.1300 -83.0178 215° Southwest 280 322 5,900 -885 Level Indianapolis Center
Wed 06:25:40 PM 40.0908 -83.0592 219° Southwest 251 289 5,000 -1,548 Descending Indianapolis Center
Wed 06:26:05 PM 40.0725 -83.0753 214° Southwest 269 310 4,300 -1,672 Descending Indianapolis Center
Wed 06:26:41 PM 40.0344 -83.0881 194° South 208 239 3,300 -1,452 Descending Indianapolis Center
Wed 06:27:07 PM 40.0194 -83.0714 140° Southeast 236 272 2,800 -984 Descending Indianapolis Center
Wed 06:27:42 PM 40.0089 -83.0306 109° East 182 209 2,300 -667 Descending Indianapolis Center
Wed 06:28:10 PM 40.0081 -83.0069 93° East 197 227 2,100 -590 Descending Indianapolis Center
Wed 06:28:43 PM 40.0067 -82.9733 93° East 145 167 1,700 -677 Descending Indianapolis Center
Wed 06:29:12 PM 40.0056 -82.9539 94° East 166 191 1,400 -396 Descending Indianapolis Center
Wed 06:30:14 PM 40.0025 -82.8978 94° East 145 167 1,100 -290 Descending Indianapolis Center

Login

Don't have an account? Register now (free) for customized features, flight alerts, and more!